Time;durP1;ratioP1;P1;durP2;ratioP2;P2;SDS_P1;SDS_P2;PMS_P1;PMS_P2;Temp;Humidity;BMP_temperature;BMP_pressure;BME280_temperature;BME280_humidity;BME280_pressure;Samples;Min_cycle;Max_cycle;Signal;HPM_P1;HPM_P2
2023/03/14 00:00:15;;;;;;;7.33;3.10;;;11.40;99.90;;;;;;5021079;28;20186;-50
2023/03/14 00:02:41;;;;;;;5.50;3.10;;;11.30;99.90;;;;;;5018548;28;20934;-50
2023/03/14 00:05:07;;;;;;;6.27;3.40;;;11.30;99.90;;;;;;5018152;28;20425;-50
2023/03/14 00:07:38;;;;;;;8.97;4.20;;;11.20;99.90;;;;;;5017259;28;20229;-52
2023/03/14 00:10:13;;;;;;;8.27;3.57;;;11.20;99.90;;;;;;5017706;28;20448;-50
2023/03/14 00:12:39;;;;;;;6.70;3.70;;;11.20;99.90;;;;;;5017580;28;20457;-53
2023/03/14 00:15:06;;;;;;;6.00;4.07;;;11.10;99.90;;;;;;5021511;28;20448;-50
2023/03/14 00:17:34;;;;;;;8.53;3.77;;;11.00;99.90;;;;;;5017431;28;20496;-49
2023/03/14 00:20:04;;;;;;;6.17;3.80;;;11.00;99.90;;;;;;5017388;28;20773;-50
2023/03/14 00:22:31;;;;;;;7.03;4.00;;;11.00;99.90;;;;;;5017477;28;20434;-49
2023/03/14 00:24:56;;;;;;;6.63;3.90;;;11.00;99.90;;;;;;5016899;28;20442;-50
2023/03/14 00:27:22;;;;;;;9.27;3.40;;;11.00;99.90;;;;;;5016688;28;20843;-50
2023/03/14 00:29:47;;;;;;;9.40;3.77;;;10.90;99.90;;;;;;5017726;28;20186;-50
2023/03/14 00:32:13;;;;;;;4.63;3.27;;;11.00;99.90;;;;;;5016587;28;20189;-49
2023/03/14 00:34:39;;;;;;;10.10;3.30;;;11.00;99.90;;;;;;5017489;28;20190;-50
2023/03/14 00:37:05;;;;;;;11.37;4.20;;;11.00;99.90;;;;;;5016940;28;20194;-50
2023/03/14 00:39:31;;;;;;;10.80;3.57;;;11.00;99.90;;;;;;5017095;28;20432;-51
2023/03/14 00:41:56;;;;;;;9.73;3.50;;;11.10;99.90;;;;;;5017184;28;20666;-50
2023/03/14 00:44:22;;;;;;;13.00;3.60;;;11.10;99.90;;;;;;5017150;28;20234;-51
2023/03/14 00:46:47;;;;;;;9.00;3.80;;;11.10;99.90;;;;;;5016604;28;20219;-50
2023/03/14 00:49:13;;;;;;;11.20;4.07;;;11.20;99.90;;;;;;5017103;28;20643;-50
2023/03/14 00:51:38;;;;;;;9.33;3.60;;;11.20;99.90;;;;;;5016816;28;20190;-50
2023/03/14 00:54:04;;;;;;;10.37;3.40;;;11.20;99.90;;;;;;5016246;28;20179;-50
2023/03/14 00:56:30;;;;;;;7.57;3.60;;;11.20;99.90;;;;;;5017103;28;20702;-51
2023/03/14 00:58:56;;;;;;;12.47;3.80;;;11.20;99.90;;;;;;5017062;28;20238;-50
2023/03/14 01:01:23;;;;;;;13.50;3.37;;;11.20;99.90;;;;;;5021038;28;20434;-50
2023/03/14 01:03:52;;;;;;;9.93;3.37;;;11.30;99.90;;;;;;5016369;28;20437;-53
2023/03/14 01:06:21;;;;;;;9.13;3.57;;;11.30;99.90;;;;;;5016721;28;20612;-51
2023/03/14 01:08:47;;;;;;;10.70;3.30;;;11.30;99.90;;;;;;5017337;28;20442;-50
2023/03/14 01:11:16;;;;;;;11.00;3.40;;;11.30;99.90;;;;;;5015641;28;20442;-50
2023/03/14 01:13:42;;;;;;;13.17;4.00;;;11.30;99.90;;;;;;5016345;28;20464;-50
2023/03/14 01:16:10;;;;;;;8.50;3.30;;;11.30;99.90;;;;;;5016223;28;20478;-51
2023/03/14 01:18:38;;;;;;;10.23;3.10;;;11.30;99.90;;;;;;5016392;28;20921;-51
2023/03/14 01:21:09;;;;;;;11.20;3.77;;;11.30;99.90;;;;;;5016388;28;20453;-50
2023/03/14 01:23:34;;;;;;;10.70;3.70;;;11.40;99.90;;;;;;5016164;28;20758;-50
2023/03/14 01:26:00;;;;;;;9.07;3.10;;;11.40;99.90;;;;;;5015803;28;20464;-50
2023/03/14 01:28:26;;;;;;;8.00;3.50;;;11.30;99.90;;;;;;5016875;28;20581;-50
2023/03/14 01:30:51;;;;;;;9.07;3.40;;;11.40;99.90;;;;;;5016314;28;20210;-50
2023/03/14 01:33:17;;;;;;;6.47;3.17;;;11.40;97.00;;;;;;5019692;28;20191;-50
2023/03/14 01:35:43;;;;;;;11.73;3.83;;;11.40;93.40;;;;;;5017061;28;20203;-51
2023/03/14 01:38:08;;;;;;;7.03;3.30;;;11.40;93.50;;;;;;5016278;28;20261;-50
2023/03/14 01:40:34;;;;;;;13.33;3.40;;;11.40;83.50;;;;;;5015320;28;20177;-50
2023/03/14 01:43:12;;;;;;;8.50;3.30;;;11.40;70.70;;;;;;5015548;28;20278;-51
2023/03/14 01:45:56;;;;;;;9.47;3.50;;;11.40;63.20;;;;;;5016326;28;20325;-50
2023/03/14 01:48:22;;;;;;;8.57;3.67;;;11.40;64.30;;;;;;5019053;28;20464;-50
2023/03/14 01:50:48;;;;;;;11.87;3.50;;;11.30;82.00;;;;;;5016271;28;20438;-50
2023/03/14 01:53:14;;;;;;;12.93;3.70;;;11.30;88.00;;;;;;5016425;28;20187;-51
2023/03/14 01:55:40;;;;;;;8.63;3.57;;;11.30;99.90;;;;;;5015061;28;20719;-50
2023/03/14 01:58:06;;;;;;;13.00;3.67;;;11.20;99.90;;;;;;5015795;28;20445;-50
2023/03/14 02:00:31;;;;;;;4.03;2.87;;;11.10;99.90;;;;;;5015336;28;20190;-50
2023/03/14 02:03:06;;;;;;;10.77;3.40;;;11.20;99.90;;;;;;5021485;28;20194;-51
2023/03/14 02:05:34;;;;;;;8.73;3.20;;;11.10;99.90;;;;;;5020509;28;20621;-49
2023/03/14 02:08:02;;;;;;;7.03;3.60;;;11.00;99.90;;;;;;5016599;28;20521;-49
2023/03/14 02:10:35;;;;;;;11.20;3.70;;;10.90;99.90;;;;;;5018376;28;20502;-50
2023/03/14 02:13:04;;;;;;;12.47;4.03;;;10.90;99.90;;;;;;5018029;28;20453;-50
2023/03/14 02:15:30;;;;;;;7.93;3.77;;;11.00;99.90;;;;;;5017349;28;20438;-50
2023/03/14 02:17:57;;;;;;;11.60;4.20;;;10.90;99.90;;;;;;5016734;28;20440;-49
2023/03/14 02:20:55;;;;;;;6.73;3.70;;;10.90;99.90;;;;;;5016527;28;20463;-49
2023/03/14 02:23:43;;;;;;;10.73;3.87;;;10.90;99.90;;;;;;5015782;28;20455;-50
2023/03/14 02:26:15;;;;;;;11.60;4.10;;;10.90;99.90;;;;;;5017034;28;20481;-50
2023/03/14 02:28:41;;;;;;;10.90;4.03;;;10.80;99.90;;;;;;5017206;28;20442;-50
2023/03/14 02:31:08;;;;;;;12.73;4.03;;;10.80;99.90;;;;;;5016393;28;20544;-49
2023/03/14 02:33:37;;;;;;;13.47;4.40;;;10.70;99.90;;;;;;5016586;28;20526;-52
2023/03/14 02:36:06;;;;;;;14.03;4.20;;;10.70;99.90;;;;;;5016633;28;20433;-50
2023/03/14 02:38:55;;;;;;;8.67;3.83;;;10.70;99.90;;;;;;5017566;28;20956;-50
2023/03/14 02:41:20;;;;;;;9.00;4.00;;;10.80;99.90;;;;;;5017139;28;20449;-50
2023/03/14 02:43:46;;;;;;;6.77;4.00;;;10.80;99.90;;;;;;5016197;28;20447;-51
2023/03/14 02:46:16;;;;;;;9.80;4.83;;;10.90;99.90;;;;;;5016672;28;20215;-51
2023/03/14 02:48:52;;;;;;;7.17;3.83;;;10.90;99.90;;;;;;5015818;28;20187;-49
2023/03/14 02:51:18;;;;;;;9.37;4.17;;;10.90;99.90;;;;;;5019396;28;20535;-50
2023/03/14 02:53:44;;;;;;;10.03;4.30;;;10.90;99.90;;;;;;5016244;28;20442;-50
2023/03/14 02:56:10;;;;;;;7.53;4.23;;;10.90;99.90;;;;;;5016788;28;20445;-50
2023/03/14 02:58:36;;;;;;;12.90;4.90;;;10.90;99.90;;;;;;5015841;28;20844;-50
2023/03/14 03:01:02;;;;;;;7.80;4.20;;;10.90;99.90;;;;;;5016720;28;20441;-50
2023/03/14 03:03:28;;;;;;;9.20;3.90;;;11.00;99.90;;;;;;5015861;28;20543;-50
2023/03/14 03:05:55;;;;;;;6.10;4.13;;;11.00;99.90;;;;;;5015909;28;20451;-50
2023/03/14 03:08:23;;;;;;;10.93;4.80;;;11.00;99.90;;;;;;5019644;28;20187;-50
2023/03/14 03:10:49;;;;;;;11.10;3.73;;;11.00;99.90;;;;;;5017035;28;20950;-50
2023/03/14 03:13:15;;;;;;;11.60;3.97;;;11.00;99.90;;;;;;5016743;28;20442;-50
2023/03/14 03:15:41;;;;;;;10.40;4.70;;;11.10;99.90;;;;;;5015718;28;20465;-50
2023/03/14 03:18:07;;;;;;;10.00;4.83;;;11.10;99.90;;;;;;5016977;28;20485;-50
2023/03/14 03:20:32;;;;;;;10.80;4.90;;;11.10;99.90;;;;;;5015742;28;20197;-49
2023/03/14 03:22:59;;;;;;;6.60;4.10;;;11.20;99.90;;;;;;5016128;28;20437;-50
2023/03/14 03:25:24;;;;;;;10.40;4.13;;;11.20;99.90;;;;;;5019896;28;20209;-50
2023/03/14 03:27:50;;;;;;;11.57;4.13;;;11.20;99.90;;;;;;5021007;28;20846;-51
2023/03/14 03:30:16;;;;;;;7.43;4.10;;;11.30;99.90;;;;;;5016413;28;20190;-50
2023/03/14 03:32:42;;;;;;;13.20;4.30;;;11.30;99.90;;;;;;5019750;28;20194;-50
2023/03/14 03:35:08;;;;;;;7.77;4.20;;;11.30;99.90;;;;;;5016702;28;20466;-50
2023/03/14 03:37:34;;;;;;;8.30;4.00;;;11.30;99.90;;;;;;5015400;28;20581;-51
2023/03/14 03:40:00;;;;;;;7.93;4.13;;;11.30;99.90;;;;;;5016121;28;20535;-50
2023/03/14 03:42:27;;;;;;;7.10;3.97;;;11.40;99.90;;;;;;5016134;28;20524;-49
2023/03/14 03:44:53;;;;;;;8.20;4.13;;;11.40;99.90;;;;;;5016603;28;20488;-50
2023/03/14 03:47:18;;;;;;;7.63;4.10;;;11.40;99.90;;;;;;5015806;28;20472;-49
2023/03/14 03:49:44;;;;;;;7.40;3.80;;;11.40;99.90;;;;;;5016200;28;20537;-50
2023/03/14 03:52:10;;;;;;;14.43;4.17;;;11.30;99.90;;;;;;5018301;28;20204;-50
2023/03/14 03:54:36;;;;;;;6.67;3.33;;;11.40;99.90;;;;;;5015367;28;20196;-50
2023/03/14 03:57:01;;;;;;;7.57;3.57;;;11.30;99.90;;;;;;5016422;28;20527;-50
2023/03/14 03:59:27;;;;;;;7.93;4.50;;;11.30;99.90;;;;;;5015665;28;20436;-49
2023/03/14 04:01:53;;;;;;;9.87;4.00;;;11.30;99.90;;;;;;5019346;28;20217;-51
2023/03/14 04:04:18;;;;;;;9.53;3.70;;;11.20;99.90;;;;;;5019361;28;20667;-50
2023/03/14 04:06:44;;;;;;;9.43;3.70;;;11.20;99.90;;;;;;5019582;28;20210;-50
2023/03/14 04:09:11;;;;;;;6.80;3.63;;;11.20;99.90;;;;;;5019387;28;20539;-50
2023/03/14 04:11:36;;;;;;;11.77;4.20;;;11.20;99.90;;;;;;5018952;28;20281;-49
2023/03/14 04:14:02;;;;;;;8.30;4.10;;;11.20;99.90;;;;;;5019780;28;20441;-50
2023/03/14 04:16:29;;;;;;;9.27;3.70;;;11.20;99.90;;;;;;5019182;28;20225;-50
2023/03/14 04:18:54;;;;;;;6.73;3.53;;;11.20;96.80;;;;;;5019315;28;20434;-50
2023/03/14 04:21:20;;;;;;;8.20;3.83;;;11.20;99.20;;;;;;5019333;28;20487;-50
2023/03/14 04:23:45;;;;;;;11.50;4.20;;;11.20;99.10;;;;;;5018740;28;20329;-50
2023/03/14 04:26:11;;;;;;;13.00;4.43;;;11.20;97.20;;;;;;5018904;28;20188;-49
2023/03/14 04:28:37;;;;;;;9.07;4.43;;;11.20;99.90;;;;;;5019573;28;20187;-50
2023/03/14 04:31:13;;;;;;;13.83;4.40;;;11.20;89.30;;;;;;5019228;28;20721;-50
2023/03/14 04:33:39;;;;;;;11.77;4.47;;;11.20;88.10;;;;;;5018422;28;20198;-49
2023/03/14 04:36:06;;;;;;;11.03;4.43;;;11.20;78.10;;;;;;5019130;28;20448;-50
2023/03/14 04:38:32;;;;;;;10.10;3.90;;;11.20;69.10;;;;;;5021948;28;20281;-50
2023/03/14 04:40:59;;;;;;;8.63;4.60;;;11.20;62.70;;;;;;5019554;28;20523;-50
2023/03/14 04:43:25;;;;;;;10.67;4.50;;;11.20;57.10;;;;;;5022173;28;20210;-50
2023/03/14 04:45:55;;;;;;;16.23;5.07;;;11.30;51.40;;;;;;5022498;28;20483;-50
2023/03/14 04:48:21;;;;;;;12.13;4.10;;;11.20;47.90;;;;;;5022557;28;20442;-50
2023/03/14 04:50:47;;;;;;;9.87;5.00;;;11.20;41.70;;;;;;5022737;28;20496;-50
2023/03/14 04:53:13;;;;;;;9.53;4.67;;;11.30;38.00;;;;;;5022092;28;20443;-49
2023/03/14 04:55:39;;;;;;;10.43;4.47;;;11.20;32.90;;;;;;5021923;28;20447;-50
2023/03/14 04:58:05;;;;;;;5.90;4.03;;;11.30;27.00;;;;;;5021879;28;20441;-49
2023/03/14 05:00:30;;;;;;;13.63;4.97;;;11.30;18.10;;;;;;5019166;28;20194;-50
2023/03/14 05:02:56;;;;;;;8.00;3.00;;;11.30;17.60;;;;;;5022449;28;20649;-50
2023/03/14 05:05:22;;;;;;;4.23;2.90;;;11.10;12.10;;;;;;5018468;28;20187;-49
2023/03/14 05:07:47;;;;;;;4.63;2.60;;;10.90;14.00;;;;;;5018517;28;20219;-50
2023/03/14 05:10:13;;;;;;;9.00;2.77;;;10.80;22.20;;;;;;5018023;28;20319;-50
2023/03/14 05:12:39;;;;;;;2.73;2.50;;;10.60;45.50;;;;;;5018097;28;20183;-51
2023/03/14 05:15:05;;;;;;;6.77;2.57;;;10.50;99.90;;;;;;5018264;28;20194;-50
2023/03/14 05:17:32;;;;;;;5.50;2.83;;;10.30;99.90;;;;;;5017924;28;20240;-50
2023/03/14 05:19:58;;;;;;;8.27;2.97;;;10.10;1.00;;;;;;5021564;28;20457;-49
2023/03/14 05:22:23;;;;;;;5.53;3.07;;;10.00;1.00;;;;;;5022248;28;20449;-49
2023/03/14 05:24:49;;;;;;;4.03;2.47;;;9.90;99.90;;;;;;5022019;28;20713;-50
2023/03/14 05:27:14;;;;;;;7.50;3.03;;;9.70;99.90;;;;;;5017383;28;20217;-50
2023/03/14 05:29:40;;;;;;;9.00;3.30;;;9.70;99.90;;;;;;5017746;28;20191;-52
2023/03/14 05:32:06;;;;;;;7.37;3.50;;;9.60;99.90;;;;;;5017605;28;20225;-50
2023/03/14 05:34:31;;;;;;;8.07;3.50;;;9.60;99.90;;;;;;5017567;28;20189;-50
2023/03/14 05:36:57;;;;;;;7.63;3.30;;;9.50;1.00;;;;;;5017919;28;20195;-50
2023/03/14 05:39:23;;;;;;;4.67;3.10;;;9.50;99.90;;;;;;5018450;28;20226;-49
2023/03/14 05:41:50;;;;;;;10.30;4.00;;;9.50;99.90;;;;;;5018146;28;20240;-50
2023/03/14 05:44:15;;;;;;;7.63;3.83;;;9.50;1.00;;;;;;5016825;28;20484;-49
2023/03/14 05:46:41;;;;;;;7.00;4.30;;;9.60;99.90;;;;;;5018023;28;20476;-50
2023/03/14 05:49:07;;;;;;;10.13;4.50;;;9.60;1.00;;;;;;5017077;28;20663;-49
2023/03/14 05:51:32;;;;;;;13.00;4.63;;;9.50;1.00;;;;;;5017294;28;20182;-50
2023/03/14 05:53:58;;;;;;;10.53;4.13;;;9.60;99.90;;;;;;5017960;28;20504;-50
2023/03/14 05:56:23;;;;;;;8.07;4.87;;;9.60;99.90;;;;;;5017747;28;20186;-50
2023/03/14 05:58:49;;;;;;;9.67;5.07;;;9.60;99.90;;;;;;5017197;28;20190;-50
2023/03/14 06:01:14;;;;;;;7.80;5.47;;;9.60;99.90;;;;;;5019741;28;20340;-50
2023/03/14 06:03:40;;;;;;;9.03;5.67;;;9.60;1.00;;;;;;5021786;28;20249;-50
2023/03/14 06:06:06;;;;;;;12.47;5.80;;;9.70;1.00;;;;;;5016926;28;20185;-50
2023/03/14 06:08:32;;;;;;;13.20;6.50;;;9.70;99.90;;;;;;5017143;28;20191;-49
2023/03/14 06:10:58;;;;;;;20.27;8.07;;;9.70;99.90;;;;;;5027131;28;20241;-50
2023/03/14 06:13:23;;;;;;;14.37;6.60;;;9.70;99.90;;;;;;5021100;28;20257;-50
2023/03/14 06:15:49;;;;;;;12.00;7.37;;;9.70;1.00;;;;;;5016765;28;20473;-49
2023/03/14 06:18:15;;;;;;;15.40;7.50;;;9.70;1.00;;;;;;5017553;28;20186;-49
2023/03/14 06:20:40;;;;;;;17.83;8.00;;;9.70;99.90;;;;;;5017121;28;20186;-49
2023/03/14 06:23:08;;;;;;;18.23;8.00;;;9.70;99.90;;;;;;5016480;28;20186;-50
2023/03/14 06:25:34;;;;;;;15.57;7.30;;;9.60;99.90;;;;;;5015994;28;20273;-49
2023/03/14 06:28:00;;;;;;;10.50;7.17;;;9.70;1.00;;;;;;5021295;28;20512;-49
2023/03/14 06:30:26;;;;;;;15.30;7.17;;;9.70;1.00;;;;;;5017014;28;20477;-49
2023/03/14 06:32:52;;;;;;;15.03;7.40;;;9.70;1.00;;;;;;5020229;28;20236;-49
2023/03/14 06:35:17;;;;;;;14.50;7.80;;;9.70;1.00;;;;;;5017375;28;20186;-49
2023/03/14 06:37:43;;;;;;;13.00;7.30;;;9.80;99.90;;;;;;5020426;28;20199;-49
2023/03/14 06:40:10;;;;;;;16.93;7.30;;;9.80;1.00;;;;;;5020671;28;20547;-49
2023/03/14 06:42:36;;;;;;;19.37;7.30;;;9.80;23.90;;;;;;5019727;28;20187;-50
2023/03/14 06:45:02;;;;;;;9.73;7.40;;;9.80;16.80;;;;;;5021039;28;20907;-49
2023/03/14 06:47:28;;;;;;;13.43;6.90;;;9.80;1.00;;;;;;5020200;28;20300;-50
2023/03/14 06:49:53;;;;;;;11.43;6.60;;;9.90;1.00;;;;;;5024313;28;20556;-49
2023/03/14 06:52:19;;;;;;;9.90;6.30;;;9.90;1.00;;;;;;5023719;28;20716;-49
2023/03/14 06:54:44;;;;;;;15.73;7.30;;;9.90;98.60;;;;;;5034327;28;20188;-49
2023/03/14 06:57:10;;;;;;;14.73;6.63;;;9.80;1.00;;;;;;5025826;28;20236;-49
2023/03/14 06:59:36;;;;;;;11.20;5.87;;;9.90;25.60;;;;;;5014171;28;20190;-49
2023/03/14 07:02:01;;;;;;;13.27;5.73;;;9.90;99.90;;;;;;5015280;28;20182;-50
2023/03/14 07:04:27;;;;;;;8.43;4.73;;;10.00;99.90;;;;;;5017407;28;20274;-49
2023/03/14 07:06:52;;;;;;;11.70;5.37;;;10.00;26.60;;;;;;5017659;28;20349;-48
2023/03/14 07:09:18;;;;;;;9.27;4.90;;;10.00;99.90;;;;;;5028466;28;20675;-49
2023/03/14 07:11:44;;;;;;;12.60;4.73;;;10.10;99.90;;;;;;5016409;28;20198;-49
2023/03/14 07:14:09;;;;;;;10.43;4.10;;;10.00;99.90;;;;;;5015970;28;20224;-50
2023/03/14 07:16:35;;;;;;;9.10;4.10;;;10.10;99.90;;;;;;5016048;28;20218;-49
2023/03/14 07:19:02;;;;;;;7.90;3.67;;;10.10;99.90;;;;;;5020144;28;20193;-49
2023/03/14 07:21:28;;;;;;;9.57;3.30;;;10.10;1.00;;;;;;5015921;28;20182;-49
2023/03/14 07:23:54;;;;;;;7.70;3.03;;;10.10;1.00;;;;;;5016358;28;20851;-50
2023/03/14 07:26:19;;;;;;;6.23;2.90;;;10.20;1.00;;;;;;5016066;28;20433;-49
2023/03/14 07:28:45;;;;;;;7.50;2.63;;;10.20;1.00;;;;;;5019709;28;20215;-48
2023/03/14 07:31:11;;;;;;;6.17;2.97;;;10.20;1.00;;;;;;5015922;28;20538;-49
2023/03/14 07:33:36;;;;;;;8.53;3.07;;;10.20;1.00;;;;;;5022783;28;20227;-49
2023/03/14 07:36:03;;;;;;;4.70;2.33;;;10.20;1.00;;;;;;5023091;28;20186;-49
2023/03/14 07:38:29;;;;;;;6.90;2.63;;;10.20;1.00;;;;;;5019946;28;20191;-49
2023/03/14 07:41:02;;;;;;;10.03;3.33;;;10.30;1.00;;;;;;5021374;28;21608;-49
2023/03/14 07:43:28;;;;;;;8.30;3.57;;;10.30;1.00;;;;;;5021209;28;20189;-49
2023/03/14 07:45:53;;;;;;;9.17;3.80;;;10.30;1.00;;;;;;5019498;28;20476;-49
2023/03/14 07:48:19;;;;;;;10.70;3.87;;;10.20;1.00;;;;;;5020742;28;20269;-49
2023/03/14 07:50:49;;;;;;;8.53;3.43;;;10.10;99.90;;;;;;5020039;28;20185;-48
2023/03/14 07:53:15;;;;;;;11.47;4.00;;;10.10;99.90;;;;;;5022206;28;20440;-49
2023/03/14 07:55:40;;;;;;;9.53;3.67;;;10.00;1.00;;;;;;5019603;28;20510;-49
2023/03/14 07:58:06;;;;;;;7.67;3.27;;;10.10;1.00;;;;;;5019708;28;20195;-47
2023/03/14 08:00:32;;;;;;;7.43;2.90;;;10.20;99.90;;;;;;5019750;28;20187;-48
2023/03/14 08:02:58;;;;;;;9.70;2.60;;;10.20;54.20;;;;;;5022537;28;20524;-49
2023/03/14 08:05:23;;;;;;;4.70;2.20;;;10.20;1.00;;;;;;5020997;28;20449;-49
2023/03/14 08:07:49;;;;;;;6.07;2.40;;;10.20;1.00;;;;;;5026366;28;20222;-48
2023/03/14 08:10:24;;;;;;;6.43;2.37;;;10.20;1.00;;;;;;5023167;28;20190;-47
2023/03/14 08:12:55;;;;;;;4.57;1.83;;;10.20;1.00;;;;;;5020208;28;20193;-48
2023/03/14 08:15:21;;;;;;;5.73;2.10;;;10.40;99.90;;;;;;5019223;28;20449;-48
2023/03/14 08:17:50;;;;;;;3.10;1.90;;;10.60;99.90;;;;;;5022401;28;20452;-49
2023/03/14 08:20:20;;;;;;;3.57;2.00;;;10.70;99.90;;;;;;5027913;28;20451;-48
2023/03/14 08:22:46;;;;;;;7.00;2.53;;;10.60;99.90;;;;;;5021790;28;20426;-49
2023/03/14 08:25:12;;;;;;;6.80;2.58;;;10.60;99.90;;;;;;5018388;28;20431;-47
2023/03/14 08:27:38;;;;;;;5.60;2.30;;;10.60;99.90;;;;;;5018494;28;20451;-48
2023/03/14 08:30:05;;;;;;;6.70;2.20;;;10.60;99.90;;;;;;5017458;28;20429;-48
2023/03/14 08:32:31;;;;;;;6.70;3.00;;;10.70;99.90;;;;;;5018575;28;20181;-48
2023/03/14 08:34:57;;;;;;;6.97;2.63;;;10.80;99.90;;;;;;5019114;28;20439;-47
2023/03/14 08:37:24;;;;;;;3.83;2.43;;;10.80;99.90;;;;;;5019543;28;20182;-48
2023/03/14 08:39:50;;;;;;;4.93;2.20;;;10.70;99.90;;;;;;5019419;28;20202;-49
2023/03/14 08:42:16;;;;;;;6.50;2.70;;;10.80;99.90;;;;;;5022394;28;20453;-48
2023/03/14 08:44:42;;;;;;;13.47;3.10;;;10.80;99.90;;;;;;5018695;28;20503;-48
2023/03/14 08:47:07;;;;;;;8.57;2.83;;;10.80;99.90;;;;;;5019890;28;20213;-48
2023/03/14 08:49:33;;;;;;;16.73;3.40;;;10.80;99.90;;;;;;5023797;28;20190;-48
2023/03/14 08:51:58;;;;;;;8.67;3.30;;;10.80;99.90;;;;;;5022633;28;20631;-48
2023/03/14 08:54:24;;;;;;;6.37;3.20;;;10.70;99.90;;;;;;5019770;28;20319;-48
2023/03/14 08:56:50;;;;;;;8.13;3.60;;;10.70;99.90;;;;;;5025105;28;20277;-48
2023/03/14 08:59:15;;;;;;;9.10;3.77;;;10.70;99.90;;;;;;5018449;28;20589;-48
2023/03/14 09:01:41;;;;;;;8.00;3.80;;;10.60;99.90;;;;;;5018299;28;20188;-49
2023/03/14 09:04:06;;;;;;;10.50;4.40;;;10.60;1.00;;;;;;5018129;28;20197;-48
2023/03/14 09:06:32;;;;;;;8.63;3.93;;;10.60;1.00;;;;;;5018562;28;20255;-48
2023/03/14 09:08:57;;;;;;;5.97;4.10;;;10.50;1.00;;;;;;5017942;28;20182;-48
2023/03/14 09:11:23;;;;;;;12.03;4.70;;;10.50;1.00;;;;;;5018767;28;20201;-49
2023/03/14 09:13:49;;;;;;;13.00;4.40;;;10.50;1.00;;;;;;5018296;28;20215;-47
2023/03/14 09:16:15;;;;;;;8.83;4.40;;;10.40;1.00;;;;;;5018057;28;20194;-49
2023/03/14 09:18:40;;;;;;;8.30;4.63;;;10.40;1.00;;;;;;5018372;28;20710;-49
2023/03/14 09:21:06;;;;;;;7.70;4.63;;;10.40;18.60;;;;;;5023809;28;20603;-48
2023/03/14 09:23:32;;;;;;;12.47;4.80;;;10.50;10.00;;;;;;5019247;28;20239;-49
2023/03/14 09:25:59;;;;;;;11.67;5.20;;;10.50;1.00;;;;;;5018530;28;20449;-49
2023/03/14 09:28:25;;;;;;;10.47;5.30;;;10.50;93.40;;;;;;5018832;28;20461;-47
2023/03/14 09:30:52;;;;;;;10.47;4.43;;;10.50;99.90;;;;;;5018149;28;20444;-47
2023/03/14 09:33:18;;;;;;;11.88;4.70;;;10.40;99.90;;;;;;5020597;28;20441;-48
2023/03/14 09:35:43;;;;;;;12.10;4.53;;;10.50;99.90;;;;;;5017748;28;20190;-47
2023/03/14 09:38:09;;;;;;;9.67;5.17;;;10.50;99.90;;;;;;5017182;28;20428;-48
2023/03/14 09:40:37;;;;;;;7.97;4.67;;;10.60;99.90;;;;;;5017368;28;20178;-49
2023/03/14 09:43:04;;;;;;;7.50;4.33;;;10.50;97.80;;;;;;5021084;28;20182;-48
2023/03/14 09:45:38;;;;;;;11.03;4.10;;;10.60;99.90;;;;;;5018135;28;20505;-49
2023/03/14 09:48:05;;;;;;;11.02;5.10;;;10.70;86.70;;;;;;5017485;28;20435;-48
2023/03/14 09:50:41;;;;;;;10.47;4.17;;;10.70;99.90;;;;;;5017088;28;20188;-48
2023/03/14 09:53:16;;;;;;;3.17;1.60;;;10.50;1.00;;;;;;5018319;28;20779;-48
2023/03/14 09:55:42;;;;;;;2.60;1.30;;;10.00;1.00;;;;;;5017921;28;20437;-47
2023/03/14 09:58:18;;;;;;;5.13;1.60;;;9.40;1.00;;;;;;5021303;28;20862;-47
2023/03/14 10:00:44;;;;;;;5.63;1.80;;;8.90;1.00;;;;;;5021672;28;21223;-47
2023/03/14 10:03:12;;;;;;;3.90;1.80;;;8.70;1.00;;;;;;5017873;28;20434;-47
2023/03/14 10:05:40;;;;;;;3.73;1.70;;;8.50;1.00;;;;;;5017009;28;20194;-47
2023/03/14 10:08:06;;;;;;;4.03;2.33;;;8.40;99.90;;;;;;5016565;28;20485;-47
2023/03/14 10:10:32;;;;;;;1.60;1.50;;;8.20;1.00;;;;;;5017154;28;20448;-46
2023/03/14 10:13:24;;;;;;;2.23;1.57;;;8.00;99.90;;;;;;5018261;28;20934;-47
2023/03/14 10:16:00;;;;;;;2.93;1.70;;;7.90;99.90;;;;;;5016231;28;20541;-47
2023/03/14 10:18:28;;;;;;;6.47;2.40;;;7.60;1.00;;;;;;5017143;28;20492;-47
2023/03/14 10:21:18;;;;;;;4.90;1.63;;;7.50;1.00;;;;;;5017162;28;21019;-47
2023/03/14 10:23:44;;;;;;;2.40;1.50;;;7.50;1.00;;;;;;5017124;28;20457;-46
2023/03/14 10:26:16;;;;;;;1.23;0.90;;;7.40;1.00;;;;;;5017112;28;20804;-47
2023/03/14 10:28:51;;;;;;;1.67;1.27;;;7.00;1.00;;;;;;5016935;28;20446;-47
2023/03/14 10:31:17;;;;;;;4.13;1.13;;;6.70;1.00;;;;;;5022048;28;20459;-46
2023/03/14 10:34:01;;;;;;;2.00;0.90;;;6.50;1.00;;;;;;5024388;28;20473;-47
2023/03/14 10:36:32;;;;;;;1.63;0.80;;;6.30;99.90;;;;;;5016830;28;20780;-47
2023/03/14 10:39:25;;;;;;;1.67;1.03;;;6.20;99.90;;;;;;5020437;28;20439;-46
2023/03/14 10:41:55;;;;;;;2.43;0.90;;;6.20;1.00;;;;;;5016415;28;20446;-46
2023/03/14 10:44:25;;;;;;;1.40;1.13;;;6.00;99.90;;;;;;5016001;28;20472;-48
2023/03/14 10:47:00;;;;;;;1.43;0.80;;;5.90;99.90;;;;;;5016095;28;21004;-47
2023/03/14 10:49:29;;;;;;;1.10;0.90;;;5.70;1.00;;;;;;5017021;28;20464;-47
2023/03/14 10:51:55;;;;;;;2.33;0.80;;;5.70;99.90;;;;;;5016279;28;20527;-47
2023/03/14 10:54:23;;;;;;;1.83;0.87;;;5.70;99.90;;;;;;5015998;28;20591;-48
2023/03/14 10:57:00;;;;;;;3.23;0.80;;;5.60;99.90;;;;;;5019438;28;20285;-47
2023/03/14 10:59:32;;;;;;;0.97;0.87;;;5.60;99.90;;;;;;5016063;28;20450;-47
2023/03/14 11:02:31;;;;;;;1.40;0.70;;;5.50;1.00;;;;;;5015946;28;20932;-48
2023/03/14 11:05:21;;;;;;;2.27;0.90;;;5.30;99.90;;;;;;5017108;28;20457;-48
2023/03/14 11:07:47;;;;;;;5.03;0.90;;;5.30;99.90;;;;;;5016691;28;20462;-48
2023/03/14 11:10:15;;;;;;;0.77;0.77;;;5.20;15.30;;;;;;5015697;28;20445;-47
2023/03/14 11:12:46;;;;;;;1.67;0.90;;;5.30;99.90;;;;;;5016131;28;20463;-47
2023/03/14 11:15:35;;;;;;;1.17;0.87;;;5.30;99.90;;;;;;5017035;28;20446;-47
2023/03/14 11:18:04;;;;;;;1.60;0.80;;;5.10;1.00;;;;;;5018061;28;20504;-49
2023/03/14 11:20:40;;;;;;;1.57;0.90;;;5.10;99.90;;;;;;5016119;28;20442;-47
2023/03/14 11:23:17;;;;;;;4.83;1.20;;;5.00;99.90;;;;;;5021103;28;20992;-47
2023/03/14 11:25:50;;;;;;;7.43;1.40;;;4.80;99.90;;;;;;5016336;28;20450;-48
2023/03/14 11:28:31;;;;;;;5.13;1.37;;;4.70;99.90;;;;;;5016236;28;20481;-48
2023/03/14 11:31:25;;;;;;;4.20;1.20;;;4.70;99.90;;;;;;5023841;28;20790;-48
2023/03/14 11:34:09;;;;;;;2.37;1.10;;;4.80;99.90;;;;;;5016390;28;20493;-48
2023/03/14 11:36:42;;;;;;;2.80;1.00;;;4.70;58.20;;;;;;5019620;28;20531;-47
2023/03/14 11:39:15;;;;;;;2.30;1.00;;;4.70;99.90;;;;;;5020047;28;20456;-48
2023/03/14 11:41:57;;;;;;;2.70;1.17;;;4.80;99.90;;;;;;5016119;28;20847;-48
2023/03/14 11:44:29;;;;;;;3.23;1.20;;;4.90;99.90;;;;;;5016069;28;21039;-48
2023/03/14 11:47:04;;;;;;;7.37;1.50;;;5.10;99.90;;;;;;5015869;28;20487;-48
2023/03/14 11:49:41;;;;;;;10.07;1.67;;;5.30;1.00;;;;;;5016976;28;20444;-48
2023/03/14 11:52:23;;;;;;;6.83;2.33;;;5.50;99.90;;;;;;5016127;28;20507;-48
2023/03/14 11:54:55;;;;;;;11.10;1.43;;;5.60;1.00;;;;;;5016430;28;20454;-48
2023/03/14 11:57:22;;;;;;;5.67;1.40;;;5.70;99.90;;;;;;5019603;28;20458;-48
2023/03/14 12:00:12;;;;;;;3.60;1.20;;;5.70;99.90;;;;;;5016016;28;20475;-48
2023/03/14 12:03:06;;;;;;;6.30;1.40;;;5.60;99.90;;;;;;5019860;28;20515;-48
2023/03/14 12:05:55;;;;;;;2.57;1.40;;;5.60;99.90;;;;;;5016379;28;20450;-49
2023/03/14 12:08:37;;;;;;;7.67;1.33;;;5.70;99.90;;;;;;5020479;28;20479;-48
2023/03/14 12:11:04;;;;;;;7.07;1.37;;;5.70;99.90;;;;;;5015413;28;20944;-49
2023/03/14 12:13:35;;;;;;;8.03;1.50;;;5.70;99.90;;;;;;5015904;28;20465;-48
2023/03/14 12:16:05;;;;;;;3.87;1.13;;;5.80;99.90;;;;;;5016273;28;20538;-48
2023/03/14 12:18:38;;;;;;;4.30;1.30;;;5.80;99.90;;;;;;5015697;28;20437;-48
2023/03/14 12:21:06;;;;;;;13.03;1.90;;;5.80;99.90;;;;;;5018844;28;20941;-48
2023/03/14 12:23:57;;;;;;;9.23;1.67;;;5.60;87.00;;;;;;5019465;28;20442;-48
2023/03/14 12:26:43;;;;;;;5.70;1.67;;;5.60;90.90;;;;;;5015870;28;20947;-48
2023/03/14 12:29:18;;;;;;;15.17;2.10;;;5.50;99.90;;;;;;5018811;28;20947;-48
2023/03/14 12:31:43;;;;;;;13.33;1.83;;;5.60;99.90;;;;;;5019655;28;20472;-48
2023/03/14 12:34:09;;;;;;;15.03;2.20;;;5.80;99.90;;;;;;5022452;28;20983;-48
2023/03/14 12:36:49;;;;;;;7.90;1.60;;;5.90;99.90;;;;;;5019025;28;20182;-48
2023/03/14 12:39:52;;;;;;;10.77;1.80;;;6.00;99.90;;;;;;5018738;28;20657;-49
2023/03/14 12:42:40;;;;;;;7.07;1.80;;;6.00;99.90;;;;;;5018743;28;20450;-48
2023/03/14 12:45:13;;;;;;;10.00;1.80;;;6.00;99.90;;;;;;5018119;28;20491;-49
2023/03/14 12:47:39;;;;;;;5.07;1.67;;;5.90;96.00;;;;;;5021827;28;20996;-48
2023/03/14 12:50:15;;;;;;;10.13;2.13;;;6.00;99.90;;;;;;5018860;28;20446;-48
2023/03/14 12:53:19;;;;;;;17.03;2.53;;;6.00;92.50;;;;;;5018766;28;20245;-49
2023/03/14 12:56:07;;;;;;;11.63;3.00;;;6.10;74.30;;;;;;5022680;28;20471;-48